Serenade Of The Seas — C6FV8 — position and weather

sailwx.info

Track history (hours):
 
Tides and Currents Weather Stations Pressure Air Temp Water Temp Dewpoint Dewpoint Depression Visibility Wind Speed Wind Dir Waves Ship Positions

Serenade Of The Seas

Operator: Royal Caribbean Cruises Ltd

Last reported at 2017-Sep-26 09:16 UTC. Time now 2017-Sep-26 14:54 UTC.
Position N 43°32' W 070°03'.

Length 294 m; draft 8.6 m.

Type: Ship. MMSI: 311492000.

Date/timePositionNaut miles runAvg speedWind from/ knotsBaromVisibWave heightAir tempDewpointWater temp
2017-Sep-26 09:16N 43°32' W 070°03'510.5
2017-Sep-26 08:50N 43°31' W 069°57'411.3
2017-Sep-26 08:29N 43°30' W 069°52'1011.2
2017-Sep-26 07:36N 43°27' W 069°39'510.5
2017-Sep-26 07:06N 43°26' W 069°32'410.6
2017-Sep-26 06:42N 43°26' W 069°26'210.4
2017-Sep-26 06:29N 43°27' W 069°23'610.6
2017-Sep-26 05:58N 43°28' W 069°15'810.9
2017-Sep-26 05:14N 43°30' W 069°05'311.0
2017-Sep-26 04:58N 43°30' W 069°01'910.6
2017-Sep-26 04:08N 43°32' W 068°49'311.3
2017-Sep-26 03:51N 43°33' W 068°44'410.6
2017-Sep-26 03:30N 43°34' W 068°40'610.6
2017-Sep-26 02:56N 43°38' W 068°34'511.0
2017-Sep-26 02:30N 43°42' W 068°30'610.7
2017-Sep-26 01:56N 43°46' W 068°24'1110.4
2017-Sep-26 00:50N 43°56' W 068°15'310.3
2017-Sep-26 00:30N 43°59' W 068°12'92 4.0
2017-Sep-25 01:25N 42°55' W 069°44'614.1
2017-Sep-25 01:00N 42°51' W 069°50'713.8
2017-Sep-25 00:30N 42°47' W 069°57'713.9
2017-Sep-25 00:00N 42°42' W 070°05'714.0
2017-Sep-24 23:30N 42°38' W 070°12'714.7
2017-Sep-24 23:00N 42°33' W 070°20'714.7
2017-Sep-24 22:30N 42°30' W 070°29'714.2
2017-Sep-24 22:00N 42°26' W 070°37'714.3
2017-Sep-24 21:30N 42°25' W 070°47'612.1
2017-Sep-24 21:00N 42°23' W 070°54'510.0
2017-Sep-24 20:30N 42°20' W 071°00'1 2.7
2017-Sep-24 20:00N 42°21' W 071°02'0 0.1
2017-Sep-24 19:26N 42°21' W 071°02'0 0.0
2017-Sep-24 18:20N 42°21' W 071°02'0 0.0
2017-Sep-24 17:32N 42°21' W 071°02'0 0.0
2017-Sep-24 17:20N 42°21' W 071°02'0 0.0
2017-Sep-24 16:59N 42°21' W 071°02'0 0.0
2017-Sep-24 16:29N 42°21' W 071°02'0 0.0
2017-Sep-24 15:59N 42°21' W 071°02'0 0.0
2017-Sep-24 15:26N 42°21' W 071°02'0 0.0
2017-Sep-24 14:59N 42°21' W 071°02'0 0.0
2017-Sep-24 14:29N 42°21' W 071°02'0 0.0
2017-Sep-24 13:53N 42°21' W 071°02'0 0.0
2017-Sep-24 13:29N 42°21' W 071°02'0 0.0
2017-Sep-24 12:59N 42°21' W 071°02'0 0.0
2017-Sep-24 12:26N 42°21' W 071°02'0 0.0
2017-Sep-24 11:59N 42°21' W 071°02'0 0.0
2017-Sep-24 11:29N 42°21' W 071°02'0 0.0
2017-Sep-24 10:59N 42°21' W 071°02'1 1.8
2017-Sep-24 10:30N 42°21' W 071°01'4 7.3
2017-Sep-24 10:00N 42°21' W 070°56'510.8
2017-Sep-24 09:30N 42°24' W 070°50'5 9.0
2017-Sep-24 09:00N 42°23' W 070°44'510.6
2017-Sep-24 08:30N 42°22' W 070°37'611.1
2017-Sep-24 08:00N 42°21' W 070°29'611.1
2017-Sep-24 07:30N 42°21' W 070°22'510.7
2017-Sep-24 07:00N 42°20' W 070°15'510.4
2017-Sep-24 06:30N 42°20' W 070°08'510.1
2017-Sep-24 06:00N 42°20' W 070°01'510.5
2017-Sep-24 05:30N 42°21' W 069°54'510.6
2017-Sep-24 05:00N 42°22' W 069°47'611.1
2017-Sep-24 04:30N 42°23' W 069°39'611.1
2017-Sep-24 04:00N 42°25' W 069°32'511.2
2017-Sep-24 03:30N 42°27' W 069°25'510.9
2017-Sep-24 03:00N 42°28' W 069°18'510.8
2017-Sep-24 02:30N 42°29' W 069°11'510.9
2017-Sep-24 02:00N 42°30' W 069°03'611.0
2017-Sep-24 01:30N 42°31' W 068°56'611.0
2017-Sep-24 00:55N 42°33' W 068°48'410.8
2017-Sep-24 00:30N 42°34' W 068°42'510.6
2017-Sep-24 00:00N 42°35' W 068°35'710.4
2017-Sep-23 23:21N 42°37' W 068°26'410.3
2017-Sep-23 22:57N 42°38' W 068°20'  
2017-Sep-18 07:09N 43°13' W 069°56'17 7.2
2017-Sep-18 04:50N 42°57' W 069°59'2 7.7
2017-Sep-18 04:30N 42°55' W 070°00'4 7.4
2017-Sep-18 03:57N 42°51' W 070°02'3 7.5
2017-Sep-18 03:30N 42°48' W 070°04'4 7.8
2017-Sep-18 03:00N 42°44' W 070°06'4 7.7
2017-Sep-18 02:29N 42°41' W 070°09'3 7.1
2017-Sep-18 02:00N 42°38' W 070°12'4 7.6
2017-Sep-18 01:30N 42°36' W 070°16'4 7.8
2017-Sep-18 01:00N 42°34' W 070°20'4 7.5
2017-Sep-18 00:30N 42°32' W 070°25'4 7.2
2017-Sep-18 00:00N 42°30' W 070°29'4 7.3
2017-Sep-17 23:30N 42°28' W 070°33'4 7.1
2017-Sep-17 23:00N 42°26' W 070°37'3 6.8
2017-Sep-17 22:30N 42°25' W 070°42'4 7.4
2017-Sep-17 22:00N 42°24' W 070°46'4 8.0
2017-Sep-17 21:30N 42°23' W 070°52'4 8.5
2017-Sep-17 21:00N 42°21' W 070°56'3 6.9
2017-Sep-17 20:31N 42°21' W 071°01'1 1.6
2017-Sep-17 20:00N 42°21' W 071°02'0 0.0
2017-Sep-17 19:30N 42°21' W 071°02'0 0.0
2017-Sep-17 19:00N 42°21' W 071°02'0 0.0
2017-Sep-17 18:30N 42°21' W 071°02'0 0.0
2017-Sep-17 18:00N 42°21' W 071°02'0 0.0
2017-Sep-17 17:30N 42°21' W 071°02'0 0.0
2017-Sep-17 17:00N 42°21' W 071°02'0 0.0
2017-Sep-17 16:30N 42°21' W 071°02'0 0.0
2017-Sep-17 16:00N 42°21' W 071°02'0 0.0
2017-Sep-17 15:30N 42°21' W 071°02'0 0.0
2017-Sep-17 15:00N 42°21' W 071°02'0 0.0
2017-Sep-17 14:27N 42°21' W 071°02'0 0.0
2017-Sep-17 14:00N 42°21' W 071°02'0 0.0
2017-Sep-17 13:30N 42°21' W 071°02'0 0.0
2017-Sep-17 13:00N 42°21' W 071°02'0 0.0
2017-Sep-17 12:30N 42°21' W 071°02'0 0.0
2017-Sep-17 12:00N 42°21' W 071°02'0 0.0
2017-Sep-17 11:27N 42°21' W 071°02'0 0.1
2017-Sep-17 11:00N 42°21' W 071°02'2 4.0
2017-Sep-17 10:31N 42°20' W 070°59'4 7.6
2017-Sep-17 10:00N 42°22' W 070°55'4 8.4
2017-Sep-17 09:30N 42°24' W 070°50'5 9.2
2017-Sep-17 09:00N 42°23' W 070°44'510.4
2017-Sep-17 08:30N 42°22' W 070°37'510.5
2017-Sep-17 08:00N 42°21' W 070°30'510.2
2017-Sep-17 07:30N 42°21' W 070°23'510.3
2017-Sep-17 07:00N 42°21' W 070°16'510.2
2017-Sep-17 06:30N 42°20' W 070°09'510.3
2017-Sep-17 06:00N 42°20' W 070°02'610.3
2017-Sep-17 05:24N 42°21' W 069°54'410.3
2017-Sep-17 05:00N 42°22' W 069°49'510.3
2017-Sep-17 04:30N 42°23' W 069°42'  
Track history (hours):
 
Tides and Currents Weather Stations Pressure Air Temp Water Temp Dewpoint Dewpoint Depression Visibility Wind Speed Wind Dir Waves Ship Positions

Serenade Of The Seas

Operator: Royal Caribbean Cruises Ltd

Last reported at 2017-Sep-26 09:16 UTC. Time now 2017-Sep-26 14:54 UTC.
Position N 43°32' W 070°03'.

Length 294 m; draft 8.6 m.

Type: Ship. MMSI: 311492000.

Date/timePositionNaut miles runAvg speedWind from/ knotsBaromVisibWave heightAir tempDewpointWater temp
2017-Sep-26 09:16N 43°32' W 070°03'510.5
2017-Sep-26 08:50N 43°31' W 069°57'411.3
2017-Sep-26 08:29N 43°30' W 069°52'1011.2
2017-Sep-26 07:36N 43°27' W 069°39'510.5
2017-Sep-26 07:06N 43°26' W 069°32'410.6
2017-Sep-26 06:42N 43°26' W 069°26'210.4
2017-Sep-26 06:29N 43°27' W 069°23'610.6
2017-Sep-26 05:58N 43°28' W 069°15'810.9
2017-Sep-26 05:14N 43°30' W 069°05'311.0
2017-Sep-26 04:58N 43°30' W 069°01'910.6
2017-Sep-26 04:08N 43°32' W 068°49'311.3
2017-Sep-26 03:51N 43°33' W 068°44'410.6
2017-Sep-26 03:30N 43°34' W 068°40'610.6
2017-Sep-26 02:56N 43°38' W 068°34'511.0
2017-Sep-26 02:30N 43°42' W 068°30'610.7
2017-Sep-26 01:56N 43°46' W 068°24'1110.4
2017-Sep-26 00:50N 43°56' W 068°15'310.3
2017-Sep-26 00:30N 43°59' W 068°12'92 4.0
2017-Sep-25 01:25N 42°55' W 069°44'614.1
2017-Sep-25 01:00N 42°51' W 069°50'713.8
2017-Sep-25 00:30N 42°47' W 069°57'713.9
2017-Sep-25 00:00N 42°42' W 070°05'714.0
2017-Sep-24 23:30N 42°38' W 070°12'714.7
2017-Sep-24 23:00N 42°33' W 070°20'714.7
2017-Sep-24 22:30N 42°30' W 070°29'714.2
2017-Sep-24 22:00N 42°26' W 070°37'714.3
2017-Sep-24 21:30N 42°25' W 070°47'612.1
2017-Sep-24 21:00N 42°23' W 070°54'510.0
2017-Sep-24 20:30N 42°20' W 071°00'1 2.7
2017-Sep-24 20:00N 42°21' W 071°02'0 0.1
2017-Sep-24 19:26N 42°21' W 071°02'0 0.0
2017-Sep-24 18:20N 42°21' W 071°02'0 0.0
2017-Sep-24 17:32N 42°21' W 071°02'0 0.0
2017-Sep-24 17:20N 42°21' W 071°02'0 0.0
2017-Sep-24 16:59N 42°21' W 071°02'0 0.0
2017-Sep-24 16:29N 42°21' W 071°02'0 0.0
2017-Sep-24 15:59N 42°21' W 071°02'0 0.0
2017-Sep-24 15:26N 42°21' W 071°02'0 0.0
2017-Sep-24 14:59N 42°21' W 071°02'0 0.0
2017-Sep-24 14:29N 42°21' W 071°02'0 0.0
2017-Sep-24 13:53N 42°21' W 071°02'0 0.0
2017-Sep-24 13:29N 42°21' W 071°02'0 0.0
2017-Sep-24 12:59N 42°21' W 071°02'0 0.0
2017-Sep-24 12:26N 42°21' W 071°02'0 0.0
2017-Sep-24 11:59N 42°21' W 071°02'0 0.0
2017-Sep-24 11:29N 42°21' W 071°02'0 0.0
2017-Sep-24 10:59N 42°21' W 071°02'1 1.8
2017-Sep-24 10:30N 42°21' W 071°01'4 7.3
2017-Sep-24 10:00N 42°21' W 070°56'510.8
2017-Sep-24 09:30N 42°24' W 070°50'5 9.0
2017-Sep-24 09:00N 42°23' W 070°44'510.6
2017-Sep-24 08:30N 42°22' W 070°37'611.1
2017-Sep-24 08:00N 42°21' W 070°29'611.1
2017-Sep-24 07:30N 42°21' W 070°22'510.7
2017-Sep-24 07:00N 42°20' W 070°15'510.4
2017-Sep-24 06:30N 42°20' W 070°08'510.1
2017-Sep-24 06:00N 42°20' W 070°01'510.5
2017-Sep-24 05:30N 42°21' W 069°54'510.6
2017-Sep-24 05:00N 42°22' W 069°47'611.1
2017-Sep-24 04:30N 42°23' W 069°39'611.1
2017-Sep-24 04:00N 42°25' W 069°32'511.2
2017-Sep-24 03:30N 42°27' W 069°25'510.9
2017-Sep-24 03:00N 42°28' W 069°18'510.8
2017-Sep-24 02:30N 42°29' W 069°11'510.9
2017-Sep-24 02:00N 42°30' W 069°03'611.0
2017-Sep-24 01:30N 42°31' W 068°56'611.0
2017-Sep-24 00:55N 42°33' W 068°48'410.8
2017-Sep-24 00:30N 42°34' W 068°42'510.6
2017-Sep-24 00:00N 42°35' W 068°35'710.4
2017-Sep-23 23:21N 42°37' W 068°26'410.3
2017-Sep-23 22:57N 42°38' W 068°20'  
2017-Sep-18 07:09N 43°13' W 069°56'17 7.2
2017-Sep-18 04:50N 42°57' W 069°59'2 7.7
2017-Sep-18 04:30N 42°55' W 070°00'4 7.4
2017-Sep-18 03:57N 42°51' W 070°02'3 7.5
2017-Sep-18 03:30N 42°48' W 070°04'4 7.8
2017-Sep-18 03:00N 42°44' W 070°06'4 7.7
2017-Sep-18 02:29N 42°41' W 070°09'3 7.1
2017-Sep-18 02:00N 42°38' W 070°12'4 7.6
2017-Sep-18 01:30N 42°36' W 070°16'4 7.8
2017-Sep-18 01:00N 42°34' W 070°20'4 7.5
2017-Sep-18 00:30N 42°32' W 070°25'4 7.2
2017-Sep-18 00:00N 42°30' W 070°29'4 7.3
2017-Sep-17 23:30N 42°28' W 070°33'4 7.1
2017-Sep-17 23:00N 42°26' W 070°37'3 6.8
2017-Sep-17 22:30N 42°25' W 070°42'4 7.4
2017-Sep-17 22:00N 42°24' W 070°46'4 8.0
2017-Sep-17 21:30N 42°23' W 070°52'4 8.5
2017-Sep-17 21:00N 42°21' W 070°56'3 6.9
2017-Sep-17 20:31N 42°21' W 071°01'1 1.6
2017-Sep-17 20:00N 42°21' W 071°02'0 0.0
2017-Sep-17 19:30N 42°21' W 071°02'0 0.0
2017-Sep-17 19:00N 42°21' W 071°02'0 0.0
2017-Sep-17 18:30N 42°21' W 071°02'0 0.0
2017-Sep-17 18:00N 42°21' W 071°02'0 0.0
2017-Sep-17 17:30N 42°21' W 071°02'0 0.0
2017-Sep-17 17:00N 42°21' W 071°02'0 0.0
2017-Sep-17 16:30N 42°21' W 071°02'0 0.0
2017-Sep-17 16:00N 42°21' W 071°02'0 0.0
2017-Sep-17 15:30N 42°21' W 071°02'0 0.0
2017-Sep-17 15:00N 42°21' W 071°02'0 0.0
2017-Sep-17 14:27N 42°21' W 071°02'0 0.0
2017-Sep-17 14:00N 42°21' W 071°02'0 0.0
2017-Sep-17 13:30N 42°21' W 071°02'0 0.0
2017-Sep-17 13:00N 42°21' W 071°02'0 0.0
2017-Sep-17 12:30N 42°21' W 071°02'0 0.0
2017-Sep-17 12:00N 42°21' W 071°02'0 0.0
2017-Sep-17 11:27N 42°21' W 071°02'0 0.1
2017-Sep-17 11:00N 42°21' W 071°02'2 4.0
2017-Sep-17 10:31N 42°20' W 070°59'4 7.6
2017-Sep-17 10:00N 42°22' W 070°55'4 8.4
2017-Sep-17 09:30N 42°24' W 070°50'5 9.2
2017-Sep-17 09:00N 42°23' W 070°44'510.4
2017-Sep-17 08:30N 42°22' W 070°37'510.5
2017-Sep-17 08:00N 42°21' W 070°30'510.2
2017-Sep-17 07:30N 42°21' W 070°23'510.3
2017-Sep-17 07:00N 42°21' W 070°16'510.2
2017-Sep-17 06:30N 42°20' W 070°09'510.3
2017-Sep-17 06:00N 42°20' W 070°02'610.3
2017-Sep-17 05:24N 42°21' W 069°54'410.3
2017-Sep-17 05:00N 42°22' W 069°49'510.3
2017-Sep-17 04:30N 42°23' W 069°42'  

Dump ship's entire track history